createdAt,value
2022-08-09T00:00:00.441Z,60.17
2022-08-09T00:02:29.055Z,60.47
2022-08-09T00:05:03.190Z,60.86
2022-08-09T00:07:44.897Z,61.26
2022-08-09T00:10:17.922Z,61.67
2022-08-09T00:12:45.599Z,61.75
2022-08-09T00:15:14.659Z,61.83
2022-08-09T00:18:06.309Z,61.72
2022-08-09T00:20:28.091Z,61.64
2022-08-09T00:22:58.293Z,61.69
2022-08-09T00:25:34.439Z,61.56
2022-08-09T00:28:04.114Z,62.01
2022-08-09T00:30:31.207Z,61.96
2022-08-09T00:32:57.970Z,61.94
2022-08-09T00:35:24.667Z,61.93
2022-08-09T00:37:51.640Z,62.08
2022-08-09T00:40:19.731Z,62.08
2022-08-09T00:44:19.480Z,61.74
2022-08-09T00:45:34.818Z,61.90
2022-08-09T00:48:03.982Z,62.00
2022-08-09T00:50:32.369Z,62.09
2022-08-09T00:52:59.967Z,62.37
2022-08-09T00:56:04.622Z,62.42
2022-08-09T00:58:25.533Z,62.28
2022-08-09T01:00:59.045Z,62.28
2022-08-09T01:03:33.364Z,62.62
2022-08-09T01:06:53.560Z,62.38
2022-08-09T01:09:57.369Z,62.61
2022-08-09T01:12:41.641Z,62.67
2022-08-09T01:15:16.935Z,63.01
2022-08-09T01:17:50.153Z,63.14
2022-08-09T01:20:36.267Z,63.12
2022-08-09T01:24:02.558Z,63.00
2022-08-09T01:26:40.951Z,63.42
2022-08-09T01:29:10.444Z,63.43
2022-08-09T01:32:31.214Z,63.58
2022-08-09T01:34:34.578Z,63.68
2022-08-09T01:37:08.728Z,64.03
2022-08-09T01:39:38.218Z,64.05
2022-08-09T01:42:11.244Z,63.93
2022-08-09T01:44:41.287Z,64.07
2022-08-09T01:47:11.738Z,64.22
2022-08-09T01:49:39.865Z,64.27
2022-08-09T01:52:14.595Z,64.19
2022-08-09T01:55:00.793Z,64.19
2022-08-09T01:57:40.064Z,64.18
2022-08-09T02:00:34.520Z,64.26
2022-08-09T02:03:02.965Z,64.29
2022-08-09T02:05:38.223Z,64.53
2022-08-09T02:08:39.435Z,64.25
2022-08-09T02:11:17.142Z,64.41
2022-08-09T02:13:55.488Z,64.34
2022-08-09T02:16:59.077Z,64.15
2022-08-09T02:19:22.838Z,63.66
2022-08-09T02:21:55.530Z,64.08
2022-08-09T02:24:26.751Z,64.15
2022-08-09T02:26:58.689Z,64.53
2022-08-09T02:29:27.408Z,64.57
2022-08-09T02:32:01.061Z,64.96
2022-08-09T02:34:41.409Z,65.42
2022-08-09T02:37:24.102Z,65.46
2022-08-09T02:40:10.328Z,65.64
2022-08-09T02:42:39.713Z,65.76
2022-08-09T02:45:16.649Z,66.05
2022-08-09T02:47:59.152Z,66.52
2022-08-09T02:50:31.072Z,66.15
2022-08-09T02:53:01.628Z,66.46
2022-08-09T02:55:39.424Z,66.54
2022-08-09T02:58:36.476Z,66.58
2022-08-09T03:01:06.407Z,66.94
2022-08-09T03:04:12.894Z,66.84
2022-08-09T03:06:27.566Z,66.76
2022-08-09T03:08:55.560Z,67.43
2022-08-09T03:12:04.649Z,67.54
2022-08-09T03:14:11.758Z,67.59
2022-08-09T03:16:42.046Z,67.56
2022-08-09T03:19:16.708Z,67.42
2022-08-09T03:21:59.968Z,67.16
2022-08-09T03:24:31.420Z,67.17
2022-08-09T03:27:10.856Z,67.23
2022-08-09T03:29:43.205Z,67.26
2022-08-09T03:32:26.227Z,67.32
2022-08-09T03:34:54.106Z,67.60
2022-08-09T03:37:56.589Z,67.49
2022-08-09T03:40:13.130Z,67.43
2022-08-09T03:42:43.149Z,67.60
2022-08-09T03:45:11.189Z,67.79
2022-08-09T03:47:41.815Z,67.74
2022-08-09T03:50:12.449Z,68.00
2022-08-09T03:52:42.502Z,68.23
2022-08-09T03:55:10.879Z,68.14
2022-08-09T03:57:44.706Z,67.87
2022-08-09T04:00:25.914Z,68.04
2022-08-09T04:02:54.501Z,68.33
2022-08-09T04:05:27.388Z,68.15
2022-08-09T04:07:57.157Z,68.12
2022-08-09T04:10:28.879Z,68.08
2022-08-09T04:13:00.830Z,67.83
2022-08-09T04:15:42.807Z,67.72
2022-08-09T04:18:16.639Z,67.44
2022-08-09T04:20:45.930Z,67.57
2022-08-09T04:23:16.837Z,67.84
2022-08-09T04:25:43.643Z,67.77
2022-08-09T04:28:10.211Z,67.26
2022-08-09T04:30:39.096Z,67.17
2022-08-09T04:33:11.482Z,67.07
2022-08-09T04:35:40.676Z,67.10
2022-08-09T04:38:09.227Z,66.54
2022-08-09T04:40:54.165Z,66.13
2022-08-09T04:43:23.083Z,66.10
2022-08-09T04:45:53.473Z,66.08
2022-08-09T04:48:21.366Z,65.84
2022-08-09T04:50:50.603Z,65.03
2022-08-09T04:53:17.463Z,65.06
2022-08-09T04:55:57.965Z,65.05
2022-08-09T04:58:25.823Z,64.95
2022-08-09T05:00:54.305Z,64.73
2022-08-09T05:03:41.227Z,64.72
2022-08-09T05:06:09.165Z,64.26
2022-08-09T05:08:36.242Z,64.13
2022-08-09T05:11:03.510Z,64.26
2022-08-09T05:13:38.683Z,63.71
2022-08-09T05:16:10.103Z,63.46
2022-08-09T05:18:55.384Z,62.89
2022-08-09T05:21:24.859Z,62.58
2022-08-09T05:24:00.941Z,62.42
2022-08-09T05:26:36.702Z,61.89
2022-08-09T05:29:04.511Z,61.65
2022-08-09T05:31:45.019Z,61.07
2022-08-09T05:34:16.970Z,60.02
2022-08-09T05:36:47.242Z,60.41
2022-08-09T05:39:29.482Z,60.43
2022-08-09T05:42:02.859Z,59.65
2022-08-09T05:44:32.809Z,59.24
2022-08-09T05:47:00.417Z,58.86
2022-08-09T05:50:24.461Z,58.30
2022-08-09T05:52:14.153Z,56.42
2022-08-09T05:54:42.022Z,55.30
2022-08-09T05:57:12.727Z,54.34
2022-08-09T05:59:44.082Z,49.42
2022-08-09T06:02:11.837Z,43.62
2022-08-09T06:04:44.696Z,43.75
2022-08-09T06:07:21.536Z,45.21
2022-08-09T06:09:54.737Z,44.25
2022-08-09T06:12:29.812Z,38.73
2022-08-09T06:15:00.701Z,36.25
2022-08-09T06:17:27.913Z,32.39
2022-08-09T06:20:07.971Z,28.75
2022-08-09T06:22:34.938Z,27.60
2022-08-09T06:25:01.858Z,25.01
2022-08-09T06:27:42.718Z,25.10
2022-08-09T06:30:16.251Z,24.26
2022-08-09T06:32:58.926Z,22.63
2022-08-09T06:35:56.548Z,21.25
2022-08-09T06:38:18.064Z,21.17
2022-08-09T06:40:45.990Z,20.97
2022-08-09T06:43:13.614Z,19.65
2022-08-09T06:46:06.626Z,20.11
2022-08-09T06:48:31.017Z,20.48
2022-08-09T06:50:59.900Z,19.71
2022-08-09T06:53:27.603Z,20.65
2022-08-09T06:56:05.898Z,21.29
2022-08-09T07:00:47.221Z,22.62
2022-08-09T07:01:19.340Z,25.78
2022-08-09T07:03:53.141Z,26.18
2022-08-09T07:06:20.870Z,25.28
2022-08-09T07:08:49.769Z,23.16
2022-08-09T07:11:23.822Z,21.21
2022-08-09T07:14:05.029Z,19.60
2022-08-09T07:16:41.316Z,19.46
2022-08-09T07:19:23.070Z,19.75
2022-08-09T07:21:57.767Z,18.75
2022-08-09T07:24:32.143Z,17.64
2022-08-09T07:27:11.062Z,17.40
2022-08-09T07:29:57.024Z,16.09
2022-08-09T07:32:32.318Z,15.52
2022-08-09T07:35:02.854Z,16.82
2022-08-09T07:37:43.811Z,16.13
2022-08-09T07:40:18.520Z,14.83
2022-08-09T07:42:55.798Z,13.56
2022-08-09T07:45:39.159Z,13.48
2022-08-09T07:48:25.698Z,14.07
2022-08-09T07:51:09.776Z,13.30
2022-08-09T07:54:05.022Z,11.83
2022-08-09T07:56:28.683Z,12.10
2022-08-09T07:58:59.513Z,13.37
2022-08-09T08:01:34.083Z,13.06
2022-08-09T08:04:04.596Z,11.74
2022-08-09T08:06:37.543Z,12.69
2022-08-09T08:09:35.585Z,12.51
2022-08-09T08:12:24.693Z,11.89
2022-08-09T08:14:54.819Z,13.53
2022-08-09T08:17:24.831Z,13.31
2022-08-09T08:20:12.962Z,13.19
2022-08-09T08:22:40.518Z,13.98
2022-08-09T08:25:09.520Z,13.55
2022-08-09T08:27:41.166Z,14.61
2022-08-09T08:30:11.821Z,14.57
2022-08-09T08:32:41.481Z,14.47
2022-08-09T08:35:22.532Z,13.44
2022-08-09T08:38:02.009Z,13.57
2022-08-09T08:40:35.910Z,11.82
2022-08-09T08:43:08.811Z,11.89
2022-08-09T08:46:10.279Z,11.25
2022-08-09T08:48:51.181Z,10.68
2022-08-09T08:51:19.031Z,10.35
2022-08-09T08:54:02.609Z,10.17
2022-08-09T08:56:34.163Z,11.38
2022-08-09T08:59:07.804Z,11.16
2022-08-09T09:01:53.455Z,11.78
2022-08-09T09:04:29.737Z,11.75
2022-08-09T09:07:08.367Z,13.06
2022-08-09T09:09:58.300Z,14.34
2022-08-09T09:12:29.055Z,16.74
2022-08-09T09:15:00.035Z,16.07
2022-08-09T09:17:48.413Z,15.75
2022-08-09T09:20:15.430Z,17.31
2022-08-09T09:23:01.729Z,16.55
2022-08-09T09:26:01.536Z,17.90
2022-08-09T09:28:21.374Z,17.02
2022-08-09T09:31:17.527Z,17.63
2022-08-09T09:34:18.165Z,20.01
2022-08-09T09:36:51.113Z,19.64
2022-08-09T09:39:23.290Z,20.46
2022-08-09T09:41:50.952Z,21.57
2022-08-09T09:44:31.729Z,21.08
2022-08-09T09:47:09.340Z,21.08
2022-08-09T09:50:07.229Z,21.58
2022-08-09T09:52:36.675Z,23.96
2022-08-09T09:55:27.713Z,25.64
2022-08-09T09:58:16.647Z,25.63
2022-08-09T10:00:55.714Z,26.86
2022-08-09T10:03:57.713Z,26.09
2022-08-09T10:06:42.932Z,25.61
2022-08-09T10:09:22.724Z,23.10
2022-08-09T10:12:12.934Z,21.31
2022-08-09T10:14:50.035Z,20.22
2022-08-09T10:17:40.203Z,19.71
2022-08-09T10:20:27.543Z,18.58
2022-08-09T10:23:14.109Z,20.22
2022-08-09T10:26:06.836Z,20.71
2022-08-09T10:28:33.868Z,21.07
2022-08-09T10:34:18.847Z,21.74
2022-08-09T10:36:35.662Z,22.61
2022-08-09T10:39:02.471Z,22.71
2022-08-09T10:41:29.090Z,21.98
2022-08-09T10:43:59.512Z,22.09
2022-08-09T10:46:31.250Z,23.05
2022-08-09T10:49:13.369Z,22.67
2022-08-09T10:52:08.489Z,24.56
2022-08-09T10:54:35.285Z,25.66
2022-08-09T10:57:16.690Z,27.50
2022-08-09T10:59:58.099Z,28.41
2022-08-09T11:03:13.390Z,29.05
2022-08-09T11:05:31.137Z,29.15
2022-08-09T11:08:47.335Z,28.61
2022-08-09T11:11:18.909Z,27.69
2022-08-09T11:13:53.684Z,27.89
2022-08-09T11:16:38.526Z,27.26
2022-08-09T11:19:09.570Z,26.93
2022-08-09T11:21:57.322Z,26.46
2022-08-09T11:25:09.856Z,26.90
2022-08-09T11:28:02.735Z,26.99
2022-08-09T11:30:32.677Z,28.85
2022-08-09T11:33:01.388Z,28.82
2022-08-09T11:35:49.288Z,29.88
2022-08-09T11:38:34.761Z,29.86
2022-08-09T11:41:37.651Z,30.42
2022-08-09T11:44:05.808Z,30.93
2022-08-09T11:46:52.863Z,31.82
2022-08-09T11:49:28.117Z,32.80
2022-08-09T11:53:02.355Z,33.00
2022-08-09T11:55:34.898Z,33.80
2022-08-09T11:58:18.418Z,32.74
2022-08-09T12:00:52.746Z,32.97
2022-08-09T12:03:55.833Z,32.88
2022-08-09T12:06:13.100Z,32.68
2022-08-09T12:08:47.790Z,31.43
2022-08-09T12:11:17.132Z,31.53
2022-08-09T12:14:11.103Z,30.63
2022-08-09T12:16:40.281Z,30.15
2022-08-09T12:19:09.821Z,29.45
2022-08-09T12:21:48.384Z,28.19
2022-08-09T12:24:24.069Z,29.69
2022-08-09T12:29:14.404Z,29.91
2022-08-09T12:29:44.586Z,29.20
2022-08-09T12:32:26.047Z,28.88
2022-08-09T12:34:59.588Z,29.50
2022-08-09T12:37:50.164Z,28.99
2022-08-09T12:40:20.513Z,29.51
2022-08-09T12:42:50.214Z,29.57
2022-08-09T12:45:33.671Z,29.40
2022-08-09T12:48:20.527Z,29.50
2022-08-09T12:50:57.021Z,28.36
2022-08-09T12:53:37.008Z,30.09
2022-08-09T12:56:43.964Z,31.16
2022-08-09T12:59:14.028Z,31.85
2022-08-09T13:01:49.109Z,32.85
2022-08-09T13:04:27.545Z,32.79
2022-08-09T13:07:11.927Z,32.82
2022-08-09T13:09:40.782Z,32.78
2022-08-09T13:12:09.877Z,32.02
2022-08-09T13:14:44.316Z,31.88
2022-08-09T13:17:44.488Z,31.74
2022-08-09T13:20:18.710Z,31.73
2022-08-09T13:23:05.323Z,31.80
2022-08-09T13:25:54.628Z,30.99
2022-08-09T13:28:33.789Z,30.21
2022-08-09T13:32:14.249Z,31.61
2022-08-09T13:33:56.843Z,32.07
2022-08-09T13:36:41.667Z,32.19
2022-08-09T13:41:19.250Z,32.42
2022-08-09T13:42:13.891Z,32.22
2022-08-09T13:44:46.221Z,32.54
2022-08-09T13:47:33.626Z,32.57
2022-08-09T13:50:12.564Z,32.72
2022-08-09T13:52:47.661Z,33.02
2022-08-09T13:55:15.420Z,32.38
2022-08-09T13:57:55.904Z,32.73
2022-08-09T14:00:28.756Z,33.17
2022-08-09T14:03:03.222Z,33.13
2022-08-09T14:05:58.390Z,33.14
2022-08-09T14:08:28.405Z,33.22
2022-08-09T14:10:56.082Z,33.32
2022-08-09T14:14:15.174Z,33.31
2022-08-09T14:16:14.707Z,32.05
2022-08-09T14:18:45.937Z,31.37
2022-08-09T14:21:22.680Z,31.81
2022-08-09T14:23:56.569Z,31.68
2022-08-09T14:26:32.165Z,32.31
2022-08-09T14:29:01.340Z,32.06
2022-08-09T14:31:49.791Z,31.97
2022-08-09T14:34:17.356Z,32.49
2022-08-09T14:36:44.175Z,32.93
2022-08-09T14:39:11.443Z,32.60
2022-08-09T14:41:41.638Z,32.40
2022-08-09T14:44:11.109Z,32.44
2022-08-09T14:47:03.269Z,32.44
2022-08-09T14:49:26.333Z,32.25
2022-08-09T14:51:58.225Z,31.39
2022-08-09T14:54:27.586Z,31.66
2022-08-09T14:56:58.962Z,31.95
2022-08-09T14:59:28.414Z,31.35
2022-08-09T15:01:55.950Z,31.64
2022-08-09T15:04:23.581Z,31.34
2022-08-09T15:06:51.317Z,31.57
2022-08-09T15:10:03.336Z,31.45
2022-08-09T15:12:07.799Z,31.01
2022-08-09T15:14:34.583Z,31.25
2022-08-09T15:17:07.695Z,31.07
2022-08-09T15:19:36.515Z,31.76
2022-08-09T15:22:03.628Z,32.09
2022-08-09T15:24:30.442Z,31.80
2022-08-09T15:26:57.687Z,32.18
2022-08-09T15:30:57.008Z,31.72
2022-08-09T15:32:29.389Z,31.92
2022-08-09T15:34:59.886Z,32.58
2022-08-09T15:37:36.889Z,32.97
2022-08-09T15:40:04.573Z,32.93
2022-08-09T15:42:39.930Z,33.43
2022-08-09T15:45:10.497Z,33.25
2022-08-09T15:47:51.932Z,33.52
2022-08-09T15:50:28.781Z,33.87
2022-08-09T15:53:06.168Z,33.91
2022-08-09T15:55:53.988Z,34.51
2022-08-09T15:58:26.696Z,34.49
2022-08-09T16:00:53.705Z,34.71
2022-08-09T16:03:29.459Z,35.02
2022-08-09T16:06:06.433Z,35.37
2022-08-09T16:08:33.620Z,35.14
2022-08-09T16:11:02.131Z,35.35
2022-08-09T16:14:04.238Z,35.10
2022-08-09T16:16:18.663Z,35.61
2022-08-09T16:18:46.045Z,35.93
2022-08-09T16:21:17.186Z,36.33
2022-08-09T16:23:55.506Z,36.12
2022-08-09T16:26:34.408Z,36.01
2022-08-09T16:29:15.728Z,35.34
2022-08-09T16:32:20.235Z,35.56
2022-08-09T16:34:54.520Z,36.27
2022-08-09T16:37:54.889Z,36.08
2022-08-09T16:40:12.641Z,36.21
2022-08-09T16:42:44.933Z,36.54
2022-08-09T16:45:14.011Z,36.42
2022-08-09T16:48:39.215Z,36.78
2022-08-09T16:50:33.750Z,37.00
2022-08-09T16:53:02.423Z,37.32
2022-08-09T16:55:44.160Z,36.87
2022-08-09T16:58:17.292Z,37.06
2022-08-09T17:00:46.508Z,36.92
2022-08-09T17:03:21.471Z,37.07
2022-08-09T17:06:06.739Z,37.71
2022-08-09T17:08:44.819Z,36.92
2022-08-09T17:11:24.417Z,37.11
2022-08-09T17:14:00.919Z,37.51
2022-08-09T17:16:28.626Z,37.19
2022-08-09T17:18:55.344Z,37.34
2022-08-09T17:21:21.933Z,36.60
2022-08-09T17:24:27.094Z,37.04
2022-08-09T17:26:38.314Z,37.51
2022-08-09T17:29:05.318Z,37.66
2022-08-09T17:31:44.636Z,37.77
2022-08-09T17:34:59.655Z,37.62
2022-08-09T17:37:02.274Z,37.49
2022-08-09T17:39:48.298Z,37.67
2022-08-09T17:42:40.994Z,37.88
2022-08-09T17:45:06.567Z,38.35
2022-08-09T17:47:49.268Z,38.08
2022-08-09T17:50:35.950Z,38.13
2022-08-09T17:53:04.837Z,38.61
2022-08-09T17:55:48.826Z,38.62
2022-08-09T17:58:19.001Z,39.50
2022-08-09T18:00:47.988Z,39.33
2022-08-09T18:03:15.208Z,39.54
2022-08-09T18:05:44.991Z,39.43
2022-08-09T18:08:19.442Z,39.90
2022-08-09T18:11:01.801Z,39.94
2022-08-09T18:13:38.746Z,40.34
2022-08-09T18:16:10.707Z,40.42
2022-08-09T18:18:43.306Z,40.00
2022-08-09T18:21:23.486Z,40.29
2022-08-09T18:24:10.481Z,39.95
2022-08-09T18:26:46.881Z,40.71
2022-08-09T18:30:42.421Z,40.67
2022-08-09T18:32:05.360Z,40.58
2022-08-09T18:34:35.249Z,40.80
2022-08-09T18:37:10.381Z,40.78
2022-08-09T18:39:53.013Z,40.77
2022-08-09T18:42:19.873Z,41.07
2022-08-09T18:44:48.030Z,40.76
2022-08-09T18:47:18.494Z,41.05
2022-08-09T18:49:47.352Z,40.90
2022-08-09T18:52:18.855Z,41.70
2022-08-09T18:54:52.482Z,41.48
2022-08-09T18:57:22.159Z,41.35
2022-08-09T18:59:56.485Z,41.01
2022-08-09T19:02:30.499Z,40.82
2022-08-09T19:05:04.135Z,40.78
2022-08-09T19:07:41.931Z,39.48
2022-08-09T19:10:26.493Z,38.02
2022-08-09T19:12:55.519Z,37.38
2022-08-09T19:15:28.841Z,37.28
2022-08-09T19:17:58.231Z,37.14
2022-08-09T19:20:26.346Z,37.20
2022-08-09T19:23:01.152Z,36.76
2022-08-09T19:25:41.963Z,36.79
2022-08-09T19:28:15.773Z,37.06
2022-08-09T19:30:44.443Z,36.76
2022-08-09T19:33:19.436Z,37.00
2022-08-09T19:35:56.931Z,37.27
2022-08-09T19:38:25.031Z,37.14
2022-08-09T19:40:51.737Z,37.53
2022-08-09T19:43:57.948Z,37.44
2022-08-09T19:46:08.542Z,37.31
2022-08-09T19:49:00.550Z,37.52
2022-08-09T19:51:30.990Z,37.41
2022-08-09T19:54:01.526Z,37.19
2022-08-09T19:56:29.495Z,36.47
2022-08-09T19:59:18.253Z,36.75
2022-08-09T20:02:03.228Z,36.08
2022-08-09T20:04:37.430Z,36.55
2022-08-09T20:07:12.428Z,36.50
2022-08-09T20:09:47.762Z,36.40
2022-08-09T20:12:27.066Z,36.78
2022-08-09T20:14:56.884Z,37.00
2022-08-09T20:17:23.468Z,36.40
2022-08-09T20:19:54.606Z,36.40
2022-08-09T20:22:21.587Z,36.42
2022-08-09T20:24:58.637Z,36.23
2022-08-09T20:27:29.122Z,36.14
2022-08-09T20:29:57.265Z,36.53
2022-08-09T20:32:30.153Z,36.64
2022-08-09T20:35:01.684Z,36.79
2022-08-09T20:38:19.490Z,37.07
2022-08-09T20:40:24.808Z,36.74
2022-08-09T20:43:17.995Z,37.07
2022-08-09T20:45:59.345Z,37.46
2022-08-09T20:48:32.107Z,37.24
2022-08-09T20:51:00.162Z,36.99
2022-08-09T20:53:37.567Z,37.36
2022-08-09T20:56:20.983Z,37.32
2022-08-09T20:58:54.192Z,37.17
2022-08-09T21:01:33.556Z,37.08
2022-08-09T21:05:53.039Z,37.32
2022-08-09T21:06:57.711Z,37.09
2022-08-09T21:09:32.895Z,37.43
2022-08-09T21:14:48.427Z,37.85
2022-08-09T21:18:23.813Z,37.69
2022-08-09T21:20:18.967Z,37.28
2022-08-09T21:22:52.746Z,38.11
2022-08-09T21:25:44.177Z,37.53
2022-08-09T21:28:34.089Z,37.75
2022-08-09T21:31:16.704Z,37.61
2022-08-09T21:33:52.080Z,37.37
2022-08-09T21:36:23.107Z,37.56
2022-08-09T21:38:57.705Z,37.25
2022-08-09T21:42:03.547Z,37.46
2022-08-09T21:44:15.495Z,37.64
2022-08-09T21:47:01.767Z,37.58
2022-08-09T21:49:28.483Z,37.53
2022-08-09T21:51:55.076Z,37.71
2022-08-09T21:54:21.689Z,37.83
2022-08-09T21:56:54.438Z,38.05
2022-08-09T21:59:23.492Z,37.99
2022-08-09T22:01:59.314Z,37.62
2022-08-09T22:04:54.975Z,37.72
2022-08-09T22:07:14.434Z,38.28
2022-08-09T22:10:00.739Z,38.29
2022-08-09T22:12:35.086Z,38.81
2022-08-09T22:15:06.938Z,38.54
2022-08-09T22:17:46.583Z,38.76
2022-08-09T22:20:16.994Z,38.89
2022-08-09T22:22:49.170Z,38.82
2022-08-09T22:26:08.493Z,38.85
2022-08-09T22:28:06.605Z,39.27
2022-08-09T22:30:34.076Z,39.69
2022-08-09T22:33:00.684Z,39.52
2022-08-09T22:36:00.763Z,39.57
2022-08-09T22:38:16.513Z,39.79
2022-08-09T22:40:49.324Z,39.95
2022-08-09T22:44:01.314Z,40.36
2022-08-09T22:48:17.098Z,40.07
2022-08-09T22:49:01.826Z,40.53
2022-08-09T22:51:38.102Z,40.63
2022-08-09T22:54:08.005Z,40.74
2022-08-09T22:56:37.608Z,40.82
2022-08-09T22:59:58.442Z,40.95
2022-08-09T23:01:54.679Z,40.78
2022-08-09T23:04:21.399Z,41.08
2022-08-09T23:07:11.267Z,41.18
2022-08-09T23:09:41.107Z,41.26
2022-08-09T23:12:08.310Z,41.38
2022-08-09T23:14:41.877Z,41.43
2022-08-09T23:17:09.591Z,41.07
2022-08-09T23:20:00.604Z,41.47
2022-08-09T23:22:23.010Z,41.56
2022-08-09T23:24:49.823Z,41.65
2022-08-09T23:27:16.426Z,41.77
2022-08-09T23:29:43.296Z,42.04
2022-08-09T23:32:09.998Z,42.04
2022-08-09T23:34:36.812Z,42.27
2022-08-09T23:37:05.002Z,42.70
2022-08-09T23:39:32.261Z,42.72
2022-08-09T23:41:59.120Z,42.69
2022-08-09T23:44:25.738Z,43.01
2022-08-09T23:46:52.854Z,43.16
2022-08-09T23:49:24.733Z,43.19
2022-08-09T23:51:52.580Z,43.40
2022-08-09T23:54:19.835Z,43.14
2022-08-09T23:56:54.731Z,43.06
2022-08-09T23:59:23.870Z,43.44
